sensor_id;sensor_type;location;lat;lon;timestamp;P1;durP1;ratioP1;P2;durP2;ratioP2
19339;SDS011;9804;52.350;6.684;2022-09-21T00:01:14;9.53;;;6.20;;
19339;SDS011;9804;52.350;6.684;2022-09-21T00:03:44;8.87;;;6.17;;
19339;SDS011;9804;52.350;6.684;2022-09-21T00:06:11;10.73;;;6.43;;
19339;SDS011;9804;52.350;6.684;2022-09-21T00:08:41;13.23;;;6.63;;
19339;SDS011;9804;52.350;6.684;2022-09-21T00:11:10;10.07;;;6.07;;
19339;SDS011;9804;52.350;6.684;2022-09-21T00:13:39;8.03;;;6.30;;
19339;SDS011;9804;52.350;6.684;2022-09-21T00:16:06;9.47;;;6.07;;
19339;SDS011;9804;52.350;6.684;2022-09-21T00:18:32;9.37;;;6.07;;
19339;SDS011;9804;52.350;6.684;2022-09-21T00:20:59;11.93;;;6.90;;
19339;SDS011;9804;52.350;6.684;2022-09-21T00:23:26;12.73;;;6.67;;
19339;SDS011;9804;52.350;6.684;2022-09-21T00:25:51;8.47;;;5.90;;
19339;SDS011;9804;52.350;6.684;2022-09-21T00:28:16;10.50;;;6.47;;
19339;SDS011;9804;52.350;6.684;2022-09-21T00:30:41;13.57;;;6.17;;
19339;SDS011;9804;52.350;6.684;2022-09-21T00:33:07;9.03;;;6.13;;
19339;SDS011;9804;52.350;6.684;2022-09-21T00:35:32;9.73;;;6.13;;
19339;SDS011;9804;52.350;6.684;2022-09-21T00:38:01;11.17;;;6.37;;
19339;SDS011;9804;52.350;6.684;2022-09-21T00:40:27;9.07;;;6.07;;
19339;SDS011;9804;52.350;6.684;2022-09-21T00:43:14;10.93;;;6.63;;
19339;SDS011;9804;52.350;6.684;2022-09-21T00:45:41;11.30;;;6.90;;
19339;SDS011;9804;52.350;6.684;2022-09-21T00:48:08;13.13;;;7.63;;
19339;SDS011;9804;52.350;6.684;2022-09-21T00:50:33;9.07;;;6.70;;
19339;SDS011;9804;52.350;6.684;2022-09-21T00:53:02;11.77;;;5.77;;
19339;SDS011;9804;52.350;6.684;2022-09-21T00:55:29;9.33;;;6.10;;
19339;SDS011;9804;52.350;6.684;2022-09-21T00:58:02;11.80;;;6.90;;
19339;SDS011;9804;52.350;6.684;2022-09-21T01:00:33;11.97;;;6.03;;
19339;SDS011;9804;52.350;6.684;2022-09-21T01:02:59;10.93;;;5.87;;
19339;SDS011;9804;52.350;6.684;2022-09-21T01:05:25;9.07;;;6.17;;
19339;SDS011;9804;52.350;6.684;2022-09-21T01:07:51;9.10;;;6.40;;
19339;SDS011;9804;52.350;6.684;2022-09-21T01:10:17;12.33;;;6.60;;
19339;SDS011;9804;52.350;6.684;2022-09-21T01:29:44;8.47;;;5.97;;
19339;SDS011;9804;52.350;6.684;2022-09-21T01:32:22;10.60;;;6.10;;
19339;SDS011;9804;52.350;6.684;2022-09-21T01:34:59;15.07;;;6.37;;
19339;SDS011;9804;52.350;6.684;2022-09-21T01:37:36;12.07;;;6.63;;
19339;SDS011;9804;52.350;6.684;2022-09-21T01:40:07;10.43;;;6.83;;
19339;SDS011;9804;52.350;6.684;2022-09-21T01:42:38;10.90;;;7.07;;
19339;SDS011;9804;52.350;6.684;2022-09-21T01:45:05;10.57;;;6.23;;
19339;SDS011;9804;52.350;6.684;2022-09-21T01:47:34;11.33;;;6.27;;
19339;SDS011;9804;52.350;6.684;2022-09-21T01:50:04;10.33;;;6.57;;
19339;SDS011;9804;52.350;6.684;2022-09-21T01:52:36;9.43;;;5.50;;
19339;SDS011;9804;52.350;6.684;2022-09-21T01:55:14;11.83;;;5.57;;
19339;SDS011;9804;52.350;6.684;2022-09-21T01:57:46;10.53;;;6.47;;
19339;SDS011;9804;52.350;6.684;2022-09-21T02:00:20;10.03;;;6.07;;
19339;SDS011;9804;52.350;6.684;2022-09-21T02:02:49;10.77;;;7.13;;
19339;SDS011;9804;52.350;6.684;2022-09-21T02:05:25;11.50;;;7.07;;
19339;SDS011;9804;52.350;6.684;2022-09-21T02:07:54;12.37;;;7.53;;
19339;SDS011;9804;52.350;6.684;2022-09-21T02:10:22;11.33;;;7.27;;
19339;SDS011;9804;52.350;6.684;2022-09-21T02:12:54;11.20;;;7.13;;
19339;SDS011;9804;52.350;6.684;2022-09-21T02:15:26;13.23;;;7.07;;
19339;SDS011;9804;52.350;6.684;2022-09-21T02:18:04;10.10;;;6.63;;
19339;SDS011;9804;52.350;6.684;2022-09-21T02:20:37;13.27;;;6.97;;
19339;SDS011;9804;52.350;6.684;2022-09-21T02:23:16;9.17;;;5.80;;
19339;SDS011;9804;52.350;6.684;2022-09-21T02:25:56;9.83;;;6.57;;
19339;SDS011;9804;52.350;6.684;2022-09-21T02:31:34;11.50;;;7.17;;
19339;SDS011;9804;52.350;6.684;2022-09-21T02:36:56;12.60;;;6.47;;
19339;SDS011;9804;52.350;6.684;2022-09-21T02:39:34;11.77;;;6.83;;
19339;SDS011;9804;52.350;6.684;2022-09-21T02:42:17;12.87;;;7.73;;
19339;SDS011;9804;52.350;6.684;2022-09-21T02:44:53;13.63;;;7.10;;
19339;SDS011;9804;52.350;6.684;2022-09-21T02:47:29;14.73;;;7.37;;
19339;SDS011;9804;52.350;6.684;2022-09-21T02:49:57;11.77;;;7.87;;
19339;SDS011;9804;52.350;6.684;2022-09-21T02:52:28;13.57;;;6.73;;
19339;SDS011;9804;52.350;6.684;2022-09-21T02:54:55;10.70;;;6.83;;
19339;SDS011;9804;52.350;6.684;2022-09-21T02:57:21;13.70;;;7.23;;
19339;SDS011;9804;52.350;6.684;2022-09-21T02:59:48;12.97;;;6.70;;
19339;SDS011;9804;52.350;6.684;2022-09-21T03:02:15;10.57;;;6.80;;
19339;SDS011;9804;52.350;6.684;2022-09-21T03:04:41;10.70;;;6.70;;
19339;SDS011;9804;52.350;6.684;2022-09-21T03:07:08;10.77;;;6.20;;
19339;SDS011;9804;52.350;6.684;2022-09-21T03:09:34;11.97;;;6.33;;
19339;SDS011;9804;52.350;6.684;2022-09-21T03:11:59;9.50;;;6.20;;
19339;SDS011;9804;52.350;6.684;2022-09-21T03:14:25;10.33;;;6.20;;
19339;SDS011;9804;52.350;6.684;2022-09-21T03:16:51;11.77;;;6.50;;
19339;SDS011;9804;52.350;6.684;2022-09-21T03:19:16;10.90;;;6.20;;
19339;SDS011;9804;52.350;6.684;2022-09-21T03:21:41;11.23;;;6.67;;
19339;SDS011;9804;52.350;6.684;2022-09-21T03:24:07;12.63;;;6.97;;
19339;SDS011;9804;52.350;6.684;2022-09-21T03:26:32;12.87;;;7.00;;
19339;SDS011;9804;52.350;6.684;2022-09-21T03:28:59;11.43;;;7.30;;
19339;SDS011;9804;52.350;6.684;2022-09-21T03:31:25;12.27;;;6.30;;
19339;SDS011;9804;52.350;6.684;2022-09-21T03:33:50;9.47;;;6.43;;
19339;SDS011;9804;52.350;6.684;2022-09-21T03:36:16;12.57;;;6.80;;
19339;SDS011;9804;52.350;6.684;2022-09-21T03:38:42;12.23;;;6.57;;
19339;SDS011;9804;52.350;6.684;2022-09-21T03:41:08;14.43;;;6.43;;
19339;SDS011;9804;52.350;6.684;2022-09-21T03:43:33;10.00;;;6.63;;
19339;SDS011;9804;52.350;6.684;2022-09-21T03:45:59;12.70;;;6.83;;
19339;SDS011;9804;52.350;6.684;2022-09-21T03:48:24;10.83;;;7.40;;
19339;SDS011;9804;52.350;6.684;2022-09-21T03:50:49;9.93;;;6.53;;
19339;SDS011;9804;52.350;6.684;2022-09-21T03:53:15;9.40;;;6.47;;
19339;SDS011;9804;52.350;6.684;2022-09-21T03:55:41;11.73;;;6.50;;
19339;SDS011;9804;52.350;6.684;2022-09-21T03:58:06;14.10;;;7.30;;
19339;SDS011;9804;52.350;6.684;2022-09-21T04:00:33;11.23;;;6.90;;
19339;SDS011;9804;52.350;6.684;2022-09-21T04:02:58;12.80;;;6.87;;
19339;SDS011;9804;52.350;6.684;2022-09-21T04:05:24;12.07;;;6.60;;
19339;SDS011;9804;52.350;6.684;2022-09-21T04:07:50;12.07;;;7.27;;
19339;SDS011;9804;52.350;6.684;2022-09-21T04:10:19;10.80;;;6.40;;
19339;SDS011;9804;52.350;6.684;2022-09-21T04:12:46;12.63;;;6.30;;
19339;SDS011;9804;52.350;6.684;2022-09-21T04:15:13;11.53;;;6.27;;
19339;SDS011;9804;52.350;6.684;2022-09-21T04:17:43;11.17;;;6.43;;
19339;SDS011;9804;52.350;6.684;2022-09-21T04:20:09;11.10;;;6.07;;
19339;SDS011;9804;52.350;6.684;2022-09-21T04:22:34;14.17;;;6.23;;
19339;SDS011;9804;52.350;6.684;2022-09-21T04:25:03;13.67;;;6.37;;
19339;SDS011;9804;52.350;6.684;2022-09-21T04:27:30;11.53;;;6.13;;
19339;SDS011;9804;52.350;6.684;2022-09-21T04:29:56;8.57;;;6.30;;
19339;SDS011;9804;52.350;6.684;2022-09-21T04:32:21;12.67;;;6.13;;
19339;SDS011;9804;52.350;6.684;2022-09-21T04:34:47;11.47;;;6.17;;
19339;SDS011;9804;52.350;6.684;2022-09-21T04:37:12;8.47;;;5.83;;
19339;SDS011;9804;52.350;6.684;2022-09-21T04:39:37;12.10;;;6.23;;
19339;SDS011;9804;52.350;6.684;2022-09-21T04:42:04;9.63;;;6.50;;
19339;SDS011;9804;52.350;6.684;2022-09-21T04:44:30;13.70;;;7.30;;
19339;SDS011;9804;52.350;6.684;2022-09-21T04:46:56;22.50;;;7.77;;
19339;SDS011;9804;52.350;6.684;2022-09-21T04:49:21;59.83;;;9.37;;
19339;SDS011;9804;52.350;6.684;2022-09-21T04:51:47;38.53;;;8.40;;
19339;SDS011;9804;52.350;6.684;2022-09-21T04:54:12;22.00;;;8.37;;
19339;SDS011;9804;52.350;6.684;2022-09-21T04:56:38;11.03;;;7.10;;
19339;SDS011;9804;52.350;6.684;2022-09-21T04:59:03;18.53;;;6.90;;
19339;SDS011;9804;52.350;6.684;2022-09-21T05:01:29;15.77;;;7.10;;
19339;SDS011;9804;52.350;6.684;2022-09-21T05:03:54;13.03;;;6.10;;
19339;SDS011;9804;52.350;6.684;2022-09-21T05:06:22;18.57;;;6.03;;
19339;SDS011;9804;52.350;6.684;2022-09-21T05:08:47;33.80;;;5.30;;
19339;SDS011;9804;52.350;6.684;2022-09-21T05:11:31;19.93;;;5.20;;
19339;SDS011;9804;52.350;6.684;2022-09-21T05:13:57;28.27;;;6.30;;
19339;SDS011;9804;52.350;6.684;2022-09-21T05:16:22;20.20;;;5.10;;
19339;SDS011;9804;52.350;6.684;2022-09-21T05:18:51;42.60;;;5.83;;
19339;SDS011;9804;52.350;6.684;2022-09-21T05:21:18;45.97;;;6.27;;
19339;SDS011;9804;52.350;6.684;2022-09-21T05:23:43;32.27;;;7.73;;
19339;SDS011;9804;52.350;6.684;2022-09-21T05:26:08;29.80;;;6.57;;
19339;SDS011;9804;52.350;6.684;2022-09-21T05:28:34;19.57;;;5.93;;
19339;SDS011;9804;52.350;6.684;2022-09-21T05:33:50;25.27;;;5.57;;
19339;SDS011;9804;52.350;6.684;2022-09-21T05:36:29;15.87;;;4.53;;
19339;SDS011;9804;52.350;6.684;2022-09-21T05:39:07;19.47;;;5.30;;
19339;SDS011;9804;52.350;6.684;2022-09-21T05:41:33;27.07;;;5.00;;
19339;SDS011;9804;52.350;6.684;2022-09-21T05:43:59;25.17;;;5.07;;
19339;SDS011;9804;52.350;6.684;2022-09-21T05:48:58;22.43;;;5.23;;
19339;SDS011;9804;52.350;6.684;2022-09-21T05:51:45;34.67;;;6.07;;
19339;SDS011;9804;52.350;6.684;2022-09-21T05:54:20;24.20;;;4.93;;
19339;SDS011;9804;52.350;6.684;2022-09-21T05:57:04;28.17;;;5.37;;
19339;SDS011;9804;52.350;6.684;2022-09-21T05:59:41;24.13;;;4.97;;
19339;SDS011;9804;52.350;6.684;2022-09-21T06:05:18;24.00;;;6.03;;
19339;SDS011;9804;52.350;6.684;2022-09-21T06:07:44;48.07;;;8.80;;
19339;SDS011;9804;52.350;6.684;2022-09-21T06:10:10;48.93;;;6.40;;
19339;SDS011;9804;52.350;6.684;2022-09-21T06:12:37;20.33;;;5.03;;
19339;SDS011;9804;52.350;6.684;2022-09-21T06:15:04;44.67;;;6.30;;
19339;SDS011;9804;52.350;6.684;2022-09-21T06:17:31;48.10;;;6.90;;
19339;SDS011;9804;52.350;6.684;2022-09-21T06:19:57;30.73;;;6.40;;
19339;SDS011;9804;52.350;6.684;2022-09-21T06:22:22;36.60;;;7.73;;
19339;SDS011;9804;52.350;6.684;2022-09-21T06:24:48;46.50;;;7.27;;
19339;SDS011;9804;52.350;6.684;2022-09-21T06:27:13;37.17;;;7.77;;
19339;SDS011;9804;52.350;6.684;2022-09-21T06:29:38;35.73;;;6.70;;
19339;SDS011;9804;52.350;6.684;2022-09-21T06:32:04;34.10;;;6.17;;
19339;SDS011;9804;52.350;6.684;2022-09-21T06:34:29;34.27;;;6.77;;
19339;SDS011;9804;52.350;6.684;2022-09-21T06:36:55;14.63;;;6.20;;
19339;SDS011;9804;52.350;6.684;2022-09-21T06:39:21;11.50;;;5.43;;
19339;SDS011;9804;52.350;6.684;2022-09-21T06:41:46;9.27;;;5.80;;
19339;SDS011;9804;52.350;6.684;2022-09-21T06:44:12;9.37;;;5.83;;
19339;SDS011;9804;52.350;6.684;2022-09-21T06:46:37;9.10;;;6.13;;
19339;SDS011;9804;52.350;6.684;2022-09-21T06:49:02;7.57;;;5.70;;
19339;SDS011;9804;52.350;6.684;2022-09-21T06:51:28;10.67;;;6.33;;
19339;SDS011;9804;52.350;6.684;2022-09-21T06:53:54;10.80;;;6.77;;
19339;SDS011;9804;52.350;6.684;2022-09-21T06:56:21;13.10;;;6.87;;
19339;SDS011;9804;52.350;6.684;2022-09-21T06:58:46;14.17;;;7.43;;
19339;SDS011;9804;52.350;6.684;2022-09-21T07:01:12;12.60;;;7.57;;
19339;SDS011;9804;52.350;6.684;2022-09-21T07:03:39;12.63;;;8.10;;
19339;SDS011;9804;52.350;6.684;2022-09-21T07:06:05;11.57;;;8.40;;
19339;SDS011;9804;52.350;6.684;2022-09-21T07:08:32;15.70;;;9.07;;
19339;SDS011;9804;52.350;6.684;2022-09-21T07:10:58;13.33;;;9.57;;
19339;SDS011;9804;52.350;6.684;2022-09-21T07:13:28;14.50;;;10.37;;
19339;SDS011;9804;52.350;6.684;2022-09-21T07:15:53;18.40;;;10.47;;
19339;SDS011;9804;52.350;6.684;2022-09-21T07:18:19;18.33;;;10.70;;
19339;SDS011;9804;52.350;6.684;2022-09-21T07:20:45;18.37;;;11.93;;
19339;SDS011;9804;52.350;6.684;2022-09-21T07:23:14;17.87;;;12.50;;
19339;SDS011;9804;52.350;6.684;2022-09-21T07:25:41;16.93;;;11.93;;
19339;SDS011;9804;52.350;6.684;2022-09-21T07:28:08;20.17;;;13.50;;
19339;SDS011;9804;52.350;6.684;2022-09-21T07:30:34;25.27;;;15.03;;
19339;SDS011;9804;52.350;6.684;2022-09-21T07:33:01;21.87;;;14.83;;
19339;SDS011;9804;52.350;6.684;2022-09-21T07:35:26;22.83;;;15.23;;
19339;SDS011;9804;52.350;6.684;2022-09-21T07:37:52;25.63;;;15.37;;
19339;SDS011;9804;52.350;6.684;2022-09-21T07:40:17;26.50;;;15.63;;
19339;SDS011;9804;52.350;6.684;2022-09-21T07:42:43;28.23;;;15.20;;
19339;SDS011;9804;52.350;6.684;2022-09-21T07:45:09;29.53;;;15.50;;
19339;SDS011;9804;52.350;6.684;2022-09-21T07:47:35;27.97;;;13.03;;
19339;SDS011;9804;52.350;6.684;2022-09-21T07:50:00;20.97;;;13.43;;
19339;SDS011;9804;52.350;6.684;2022-09-21T07:52:26;22.93;;;13.10;;
19339;SDS011;9804;52.350;6.684;2022-09-21T07:54:51;23.17;;;13.03;;
19339;SDS011;9804;52.350;6.684;2022-09-21T07:57:17;20.63;;;12.07;;
19339;SDS011;9804;52.350;6.684;2022-09-21T08:00:01;24.03;;;12.60;;
19339;SDS011;9804;52.350;6.684;2022-09-21T08:02:26;18.43;;;12.50;;
19339;SDS011;9804;52.350;6.684;2022-09-21T08:04:52;25.90;;;12.23;;
19339;SDS011;9804;52.350;6.684;2022-09-21T08:07:18;16.30;;;11.10;;
19339;SDS011;9804;52.350;6.684;2022-09-21T08:09:43;18.03;;;10.50;;
19339;SDS011;9804;52.350;6.684;2022-09-21T08:12:09;15.73;;;10.90;;
19339;SDS011;9804;52.350;6.684;2022-09-21T08:14:35;24.40;;;10.87;;
19339;SDS011;9804;52.350;6.684;2022-09-21T08:17:00;23.75;;;10.40;;
19339;SDS011;9804;52.350;6.684;2022-09-21T08:19:26;16.53;;;9.23;;
19339;SDS011;9804;52.350;6.684;2022-09-21T08:21:52;18.30;;;9.02;;
19339;SDS011;9804;52.350;6.684;2022-09-21T08:24:18;16.23;;;8.47;;
19339;SDS011;9804;52.350;6.684;2022-09-21T08:26:44;16.45;;;8.77;;
19339;SDS011;9804;52.350;6.684;2022-09-21T08:29:09;14.75;;;7.90;;
19339;SDS011;9804;52.350;6.684;2022-09-21T08:31:37;17.20;;;8.23;;
19339;SDS011;9804;52.350;6.684;2022-09-21T08:34:03;15.55;;;7.10;;
19339;SDS011;9804;52.350;6.684;2022-09-21T08:36:28;12.87;;;6.17;;
19339;SDS011;9804;52.350;6.684;2022-09-21T08:38:54;18.13;;;6.37;;
19339;SDS011;9804;52.350;6.684;2022-09-21T08:44:09;15.20;;;5.17;;
19339;SDS011;9804;52.350;6.684;2022-09-21T08:46:39;15.30;;;4.93;;
19339;SDS011;9804;52.350;6.684;2022-09-21T08:49:09;15.20;;;5.00;;
19339;SDS011;9804;52.350;6.684;2022-09-21T08:51:41;15.32;;;5.38;;
19339;SDS011;9804;52.350;6.684;2022-09-21T08:54:15;14.25;;;4.15;;
19339;SDS011;9804;52.350;6.684;2022-09-21T08:56:58;12.20;;;4.10;;
19339;SDS011;9804;52.350;6.684;2022-09-21T08:59:24;11.75;;;4.88;;
19339;SDS011;9804;52.350;6.684;2022-09-21T09:12:20;15.10;;;3.50;;
19339;SDS011;9804;52.350;6.684;2022-09-21T09:18:08;10.55;;;2.92;;
19339;SDS011;9804;52.350;6.684;2022-09-21T09:20:52;9.95;;;2.60;;
19339;SDS011;9804;52.350;6.684;2022-09-21T09:23:33;10.02;;;2.13;;
19339;SDS011;9804;52.350;6.684;2022-09-21T09:26:12;6.30;;;1.45;;
19339;SDS011;9804;52.350;6.684;2022-09-21T09:28:44;8.85;;;1.73;;
19339;SDS011;9804;52.350;6.684;2022-09-21T09:31:18;8.82;;;1.60;;
19339;SDS011;9804;52.350;6.684;2022-09-21T09:33:54;11.23;;;2.47;;
19339;SDS011;9804;52.350;6.684;2022-09-21T09:36:33;9.70;;;1.95;;
19339;SDS011;9804;52.350;6.684;2022-09-21T09:39:02;7.43;;;1.70;;
19339;SDS011;9804;52.350;6.684;2022-09-21T09:41:40;11.38;;;2.00;;
19339;SDS011;9804;52.350;6.684;2022-09-21T09:50:11;5.88;;;1.55;;
19339;SDS011;9804;52.350;6.684;2022-09-21T09:52:49;9.80;;;1.20;;
19339;SDS011;9804;52.350;6.684;2022-09-21T09:57:48;4.10;;;1.30;;
19339;SDS011;9804;52.350;6.684;2022-09-21T10:00:15;7.82;;;1.10;;
19339;SDS011;9804;52.350;6.684;2022-09-21T10:02:50;5.70;;;1.65;;
19339;SDS011;9804;52.350;6.684;2022-09-21T10:05:24;8.07;;;1.33;;
19339;SDS011;9804;52.350;6.684;2022-09-21T10:07:55;5.75;;;0.93;;
19339;SDS011;9804;52.350;6.684;2022-09-21T10:12:45;6.35;;;1.27;;
19339;SDS011;9804;52.350;6.684;2022-09-21T10:15:11;4.65;;;1.25;;
19339;SDS011;9804;52.350;6.684;2022-09-21T10:17:37;8.00;;;1.80;;
19339;SDS011;9804;52.350;6.684;2022-09-21T10:20:04;6.47;;;1.35;;
19339;SDS011;9804;52.350;6.684;2022-09-21T10:22:32;7.70;;;1.23;;
19339;SDS011;9804;52.350;6.684;2022-09-21T10:24:57;5.78;;;1.30;;
19339;SDS011;9804;52.350;6.684;2022-09-21T10:27:29;6.45;;;1.40;;
19339;SDS011;9804;52.350;6.684;2022-09-21T10:29:58;7.28;;;1.10;;
19339;SDS011;9804;52.350;6.684;2022-09-21T10:32:25;6.72;;;1.63;;
19339;SDS011;9804;52.350;6.684;2022-09-21T10:37:30;5.88;;;1.35;;
19339;SDS011;9804;52.350;6.684;2022-09-21T10:40:01;5.90;;;1.25;;
19339;SDS011;9804;52.350;6.684;2022-09-21T10:42:30;6.75;;;1.40;;
19339;SDS011;9804;52.350;6.684;2022-09-21T10:45:09;4.75;;;1.00;;
19339;SDS011;9804;52.350;6.684;2022-09-21T10:47:52;8.98;;;1.15;;
19339;SDS011;9804;52.350;6.684;2022-09-21T10:50:22;4.45;;;1.00;;
19339;SDS011;9804;52.350;6.684;2022-09-21T10:52:54;4.75;;;1.25;;
19339;SDS011;9804;52.350;6.684;2022-09-21T10:55:23;3.80;;;0.98;;
19339;SDS011;9804;52.350;6.684;2022-09-21T10:57:50;4.60;;;1.08;;
19339;SDS011;9804;52.350;6.684;2022-09-21T11:02:47;5.97;;;1.17;;
19339;SDS011;9804;52.350;6.684;2022-09-21T11:05:16;5.07;;;1.35;;
19339;SDS011;9804;52.350;6.684;2022-09-21T11:10:32;8.90;;;1.73;;
19339;SDS011;9804;52.350;6.684;2022-09-21T11:13:24;6.30;;;1.20;;
19339;SDS011;9804;52.350;6.684;2022-09-21T11:27:18;3.38;;;0.85;;
19339;SDS011;9804;52.350;6.684;2022-09-21T11:29:59;8.55;;;1.10;;
19339;SDS011;9804;52.350;6.684;2022-09-21T11:35:46;3.88;;;0.80;;
19339;SDS011;9804;52.350;6.684;2022-09-21T11:41:02;1.67;;;0.80;;
19339;SDS011;9804;52.350;6.684;2022-09-21T11:43:45;5.40;;;0.95;;
19339;SDS011;9804;52.350;6.684;2022-09-21T11:46:24;6.20;;;1.00;;
19339;SDS011;9804;52.350;6.684;2022-09-21T11:49:03;6.22;;;1.13;;
19339;SDS011;9804;52.350;6.684;2022-09-21T11:51:49;7.90;;;1.30;;
19339;SDS011;9804;52.350;6.684;2022-09-21T11:57:34;5.97;;;1.20;;
19339;SDS011;9804;52.350;6.684;2022-09-21T12:02:46;5.63;;;1.10;;
19339;SDS011;9804;52.350;6.684;2022-09-21T12:05:35;4.07;;;1.00;;
19339;SDS011;9804;52.350;6.684;2022-09-21T12:08:26;7.03;;;1.10;;
19339;SDS011;9804;52.350;6.684;2022-09-21T12:14:12;4.45;;;0.98;;
19339;SDS011;9804;52.350;6.684;2022-09-21T12:22:21;5.15;;;0.60;;
19339;SDS011;9804;52.350;6.684;2022-09-21T12:24:51;2.97;;;0.70;;
19339;SDS011;9804;52.350;6.684;2022-09-21T12:29:55;5.35;;;0.70;;
19339;SDS011;9804;52.350;6.684;2022-09-21T12:35:32;5.82;;;0.80;;
19339;SDS011;9804;52.350;6.684;2022-09-21T12:38:15;3.92;;;0.90;;
19339;SDS011;9804;52.350;6.684;2022-09-21T12:40:52;6.80;;;0.95;;
19339;SDS011;9804;52.350;6.684;2022-09-21T12:43:35;3.72;;;1.02;;
19339;SDS011;9804;52.350;6.684;2022-09-21T12:46:11;4.18;;;0.93;;
19339;SDS011;9804;52.350;6.684;2022-09-21T12:48:53;3.50;;;0.75;;
19339;SDS011;9804;52.350;6.684;2022-09-21T12:51:30;6.07;;;1.00;;
19339;SDS011;9804;52.350;6.684;2022-09-21T12:53:59;2.90;;;0.75;;
19339;SDS011;9804;52.350;6.684;2022-09-21T12:56:34;3.50;;;0.75;;
19339;SDS011;9804;52.350;6.684;2022-09-21T13:13:23;3.15;;;0.65;;
19339;SDS011;9804;52.350;6.684;2022-09-21T13:15:56;2.88;;;0.82;;
19339;SDS011;9804;52.350;6.684;2022-09-21T13:20:53;4.00;;;1.20;;
19339;SDS011;9804;52.350;6.684;2022-09-21T13:23:41;5.30;;;0.60;;
19339;SDS011;9804;52.350;6.684;2022-09-21T13:26:07;5.20;;;0.70;;
19339;SDS011;9804;52.350;6.684;2022-09-21T13:39:35;4.65;;;0.70;;
19339;SDS011;9804;52.350;6.684;2022-09-21T13:42:41;3.03;;;0.88;;
19339;SDS011;9804;52.350;6.684;2022-09-21T13:47:32;3.03;;;0.65;;
19339;SDS011;9804;52.350;6.684;2022-09-21T13:50:00;5.60;;;0.88;;
19339;SDS011;9804;52.350;6.684;2022-09-21T13:57:55;4.00;;;0.60;;
19339;SDS011;9804;52.350;6.684;2022-09-21T14:03:25;6.38;;;0.75;;
19339;SDS011;9804;52.350;6.684;2022-09-21T14:05:59;4.43;;;1.05;;
19339;SDS011;9804;52.350;6.684;2022-09-21T14:08:28;3.97;;;0.90;;
19339;SDS011;9804;52.350;6.684;2022-09-21T14:13:32;3.10;;;0.90;;
19339;SDS011;9804;52.350;6.684;2022-09-21T14:19:08;2.35;;;0.80;;
19339;SDS011;9804;52.350;6.684;2022-09-21T14:30:38;2.95;;;0.65;;
19339;SDS011;9804;52.350;6.684;2022-09-21T14:32:45;5.70;;;0.88;;
19339;SDS011;9804;52.350;6.684;2022-09-21T14:35:17;5.88;;;0.80;;
19339;SDS011;9804;52.350;6.684;2022-09-21T14:37:45;4.03;;;0.93;;
19339;SDS011;9804;52.350;6.684;2022-09-21T14:40:24;6.82;;;0.75;;
19339;SDS011;9804;52.350;6.684;2022-09-21T14:42:56;4.93;;;0.98;;
19339;SDS011;9804;52.350;6.684;2022-09-21T14:50:53;4.65;;;0.90;;
19339;SDS011;9804;52.350;6.684;2022-09-21T14:56:00;2.55;;;0.63;;
19339;SDS011;9804;52.350;6.684;2022-09-21T15:01:45;5.13;;;1.00;;
19339;SDS011;9804;52.350;6.684;2022-09-21T15:04:28;1.85;;;0.60;;
19339;SDS011;9804;52.350;6.684;2022-09-21T15:07:36;6.03;;;1.10;;
19339;SDS011;9804;52.350;6.684;2022-09-21T15:10:59;3.15;;;0.80;;
19339;SDS011;9804;52.350;6.684;2022-09-21T15:19:27;2.30;;;0.60;;
19339;SDS011;9804;52.350;6.684;2022-09-21T15:21:51;2.50;;;0.93;;
19339;SDS011;9804;52.350;6.684;2022-09-21T15:24:24;2.67;;;0.70;;
19339;SDS011;9804;52.350;6.684;2022-09-21T15:27:04;4.78;;;0.90;;
19339;SDS011;9804;52.350;6.684;2022-09-21T15:29:30;2.38;;;0.60;;
19339;SDS011;9804;52.350;6.684;2022-09-21T15:31:57;2.42;;;0.60;;
19339;SDS011;9804;52.350;6.684;2022-09-21T15:34:24;3.70;;;0.52;;
19339;SDS011;9804;52.350;6.684;2022-09-21T15:36:49;2.08;;;0.60;;
19339;SDS011;9804;52.350;6.684;2022-09-21T15:39:20;4.95;;;0.73;;
19339;SDS011;9804;52.350;6.684;2022-09-21T15:41:57;1.95;;;0.55;;
19339;SDS011;9804;52.350;6.684;2022-09-21T15:44:32;3.83;;;0.52;;
19339;SDS011;9804;52.350;6.684;2022-09-21T15:46:58;4.10;;;0.80;;
19339;SDS011;9804;52.350;6.684;2022-09-21T15:49:27;5.93;;;0.80;;
19339;SDS011;9804;52.350;6.684;2022-09-21T15:51:57;4.05;;;0.77;;
19339;SDS011;9804;52.350;6.684;2022-09-21T15:54:36;3.67;;;0.90;;
19339;SDS011;9804;52.350;6.684;2022-09-21T15:57:19;1.92;;;0.80;;
19339;SDS011;9804;52.350;6.684;2022-09-21T16:00:03;2.28;;;0.80;;
19339;SDS011;9804;52.350;6.684;2022-09-21T16:02:35;3.90;;;0.60;;
19339;SDS011;9804;52.350;6.684;2022-09-21T16:05:03;4.80;;;0.88;;
19339;SDS011;9804;52.350;6.684;2022-09-21T16:07:33;3.40;;;0.70;;
19339;SDS011;9804;52.350;6.684;2022-09-21T16:10:00;4.38;;;1.08;;
19339;SDS011;9804;52.350;6.684;2022-09-21T16:12:30;3.85;;;1.33;;
19339;SDS011;9804;52.350;6.684;2022-09-21T16:17:52;3.80;;;1.17;;
19339;SDS011;9804;52.350;6.684;2022-09-21T16:20:36;1.85;;;0.50;;
19339;SDS011;9804;52.350;6.684;2022-09-21T16:23:28;3.90;;;0.77;;
19339;SDS011;9804;52.350;6.684;2022-09-21T16:25:55;5.68;;;0.95;;
19339;SDS011;9804;52.350;6.684;2022-09-21T16:28:29;2.50;;;0.50;;
19339;SDS011;9804;52.350;6.684;2022-09-21T16:30:59;3.72;;;0.63;;
19339;SDS011;9804;52.350;6.684;2022-09-21T16:38:44;4.40;;;0.85;;
19339;SDS011;9804;52.350;6.684;2022-09-21T16:41:11;2.70;;;0.43;;
19339;SDS011;9804;52.350;6.684;2022-09-21T16:43:37;1.90;;;0.82;;
19339;SDS011;9804;52.350;6.684;2022-09-21T16:46:04;2.92;;;0.70;;
19339;SDS011;9804;52.350;6.684;2022-09-21T16:48:32;2.58;;;0.60;;
19339;SDS011;9804;52.350;6.684;2022-09-21T16:50:57;3.97;;;0.63;;
19339;SDS011;9804;52.350;6.684;2022-09-21T16:53:23;2.50;;;0.68;;
19339;SDS011;9804;52.350;6.684;2022-09-21T16:55:50;3.72;;;0.75;;
19339;SDS011;9804;52.350;6.684;2022-09-21T16:58:17;2.50;;;0.63;;
19339;SDS011;9804;52.350;6.684;2022-09-21T17:00:44;9.05;;;0.80;;
19339;SDS011;9804;52.350;6.684;2022-09-21T17:03:12;3.38;;;0.80;;
19339;SDS011;9804;52.350;6.684;2022-09-21T17:05:39;2.47;;;0.70;;
19339;SDS011;9804;52.350;6.684;2022-09-21T17:08:04;2.55;;;0.60;;
19339;SDS011;9804;52.350;6.684;2022-09-21T17:10:30;1.95;;;0.57;;
19339;SDS011;9804;52.350;6.684;2022-09-21T17:13:00;2.33;;;0.80;;
19339;SDS011;9804;52.350;6.684;2022-09-21T17:15:28;3.33;;;0.50;;
19339;SDS011;9804;52.350;6.684;2022-09-21T17:17:54;1.85;;;0.50;;
19339;SDS011;9804;52.350;6.684;2022-09-21T17:20:38;3.50;;;0.57;;
19339;SDS011;9804;52.350;6.684;2022-09-21T17:23:06;2.40;;;0.65;;
19339;SDS011;9804;52.350;6.684;2022-09-21T17:25:32;1.83;;;0.65;;
19339;SDS011;9804;52.350;6.684;2022-09-21T17:27:59;1.60;;;0.40;;
19339;SDS011;9804;52.350;6.684;2022-09-21T17:30:26;4.05;;;0.80;;
19339;SDS011;9804;52.350;6.684;2022-09-21T17:32:52;6.57;;;0.50;;
19339;SDS011;9804;52.350;6.684;2022-09-21T17:35:21;1.85;;;0.50;;
19339;SDS011;9804;52.350;6.684;2022-09-21T17:37:56;5.13;;;0.75;;
19339;SDS011;9804;52.350;6.684;2022-09-21T17:40:22;5.63;;;0.98;;
19339;SDS011;9804;52.350;6.684;2022-09-21T17:42:48;3.58;;;0.50;;
19339;SDS011;9804;52.350;6.684;2022-09-21T17:47:52;4.00;;;0.70;;
19339;SDS011;9804;52.350;6.684;2022-09-21T17:50:25;1.80;;;0.50;;
19339;SDS011;9804;52.350;6.684;2022-09-21T17:52:51;3.58;;;0.60;;
19339;SDS011;9804;52.350;6.684;2022-09-21T17:55:37;3.28;;;0.98;;
19339;SDS011;9804;52.350;6.684;2022-09-21T17:58:09;4.30;;;0.70;;
19339;SDS011;9804;52.350;6.684;2022-09-21T18:01:39;2.65;;;0.52;;
19339;SDS011;9804;52.350;6.684;2022-09-21T18:03:46;3.90;;;0.70;;
19339;SDS011;9804;52.350;6.684;2022-09-21T18:06:12;2.03;;;0.70;;
19339;SDS011;9804;52.350;6.684;2022-09-21T18:08:38;5.07;;;0.98;;
19339;SDS011;9804;52.350;6.684;2022-09-21T18:11:49;2.83;;;0.60;;
19339;SDS011;9804;52.350;6.684;2022-09-21T18:22:49;3.38;;;0.82;;
19339;SDS011;9804;52.350;6.684;2022-09-21T18:25:27;5.60;;;0.75;;